createdAt,value
2019-05-01T00:01:25.386Z,116.70
2019-05-01T00:07:01.591Z,121.07
2019-05-01T00:12:41.943Z,127.33
2019-05-01T00:18:41.246Z,128.17
2019-05-01T00:21:10.669Z,116.03
2019-05-01T00:23:40.011Z,121.33
2019-05-01T00:26:09.366Z,129.67
2019-05-01T00:28:38.689Z,132.93
2019-05-01T00:31:08.026Z,127.63
2019-05-01T00:33:37.392Z,131.77
2019-05-01T00:36:06.728Z,128.43
2019-05-01T00:38:36.070Z,131.33
2019-05-01T00:41:05.418Z,138.40
2019-05-01T00:43:34.752Z,154.10
2019-05-01T00:46:05.068Z,121.33
2019-05-01T00:48:34.403Z,137.47
2019-05-01T00:51:03.742Z,138.90
2019-05-01T00:53:33.088Z,132.40
2019-05-01T00:56:15.972Z,124.27
2019-05-01T00:59:03.108Z,118.27
2019-05-01T01:01:43.100Z,124.33
2019-05-01T01:04:14.088Z,135.40
2019-05-01T01:06:43.425Z,125.50
2019-05-01T01:09:13.718Z,124.70
2019-05-01T01:11:43.048Z,128.63
2019-05-01T01:14:12.387Z,121.53
2019-05-01T01:16:41.733Z,126.97
2019-05-01T01:19:11.067Z,113.63
2019-05-01T01:21:41.168Z,127.13
2019-05-01T01:24:10.810Z,111.33
2019-05-01T01:26:40.486Z,122.90
2019-05-01T01:29:10.702Z,158.03
2019-05-01T01:31:40.104Z,129.37
2019-05-01T01:34:09.511Z,124.73
2019-05-01T01:36:38.859Z,141.07
2019-05-01T01:39:08.263Z,118.67
2019-05-01T01:41:37.666Z,123.23
2019-05-01T01:44:09.091Z,129.37
2019-05-01T01:46:40.232Z,136.57
2019-05-01T01:49:09.712Z,127.77
2019-05-01T01:51:39.191Z,130.10
2019-05-01T01:54:08.597Z,117.97
2019-05-01T01:56:38.282Z,122.53
2019-05-01T01:59:07.862Z,115.87
2019-05-01T02:01:55.220Z,125.47
2019-05-01T02:04:29.169Z,123.78
2019-05-01T02:06:58.506Z,122.23
2019-05-01T02:09:28.488Z,121.23
2019-05-01T02:11:58.000Z,129.60
2019-05-01T02:14:27.476Z,141.10
2019-05-01T02:16:56.826Z,121.10
2019-05-01T02:19:26.232Z,127.00
2019-05-01T02:21:55.592Z,114.62
2019-05-01T02:24:24.951Z,141.80
2019-05-01T02:26:55.998Z,121.10
2019-05-01T02:29:29.935Z,123.02
2019-05-01T02:32:00.314Z,128.67
2019-05-01T02:34:31.002Z,134.13
2019-05-01T02:37:03.249Z,120.90
2019-05-01T02:39:34.949Z,124.45
2019-05-01T02:42:04.832Z,140.07
2019-05-01T02:44:37.263Z,137.60
2019-05-01T02:47:09.394Z,129.50
2019-05-01T02:49:44.610Z,130.25
2019-05-01T02:52:14.463Z,142.68
2019-05-01T02:54:47.489Z,137.90
2019-05-01T02:57:20.491Z,131.75
2019-05-01T02:59:52.690Z,129.65
2019-05-01T03:02:24.888Z,128.30
2019-05-01T03:04:56.065Z,138.53
2019-05-01T03:07:27.886Z,138.60
2019-05-01T03:09:57.377Z,123.10
2019-05-01T03:12:29.765Z,140.50
2019-05-01T03:15:01.809Z,137.10
2019-05-01T03:17:36.763Z,139.88
2019-05-01T03:20:14.757Z,123.22
2019-05-01T03:22:45.812Z,123.67
2019-05-01T03:25:15.442Z,127.97
2019-05-01T03:27:44.922Z,131.90
2019-05-01T03:30:14.550Z,129.60
2019-05-01T03:32:43.940Z,133.35
2019-05-01T03:35:13.274Z,131.20
2019-05-01T03:37:42.691Z,120.33
2019-05-01T03:40:13.833Z,142.83
2019-05-01T03:42:43.432Z,140.22
2019-05-01T03:45:12.917Z,130.70
2019-05-01T03:47:42.425Z,131.50
2019-05-01T03:50:12.058Z,138.60
2019-05-01T03:52:41.811Z,122.30
2019-05-01T03:55:11.490Z,128.68
2019-05-01T03:57:42.869Z,125.77
2019-05-01T04:00:15.021Z,118.00
2019-05-01T04:03:02.995Z,117.40
2019-05-01T04:05:32.345Z,122.30
2019-05-01T04:08:01.849Z,143.10
2019-05-01T04:10:31.478Z,125.35
2019-05-01T04:13:00.890Z,121.67
2019-05-01T04:15:30.312Z,122.55
2019-05-01T04:18:01.307Z,135.35
2019-05-01T04:20:30.723Z,121.95
2019-05-01T04:23:00.519Z,133.63
2019-05-01T04:25:30.001Z,129.00
2019-05-01T04:28:01.526Z,118.57
2019-05-01T04:30:49.173Z,126.50
2019-05-01T04:33:20.229Z,131.73
2019-05-01T04:35:51.198Z,114.07
2019-05-01T04:38:20.552Z,131.85
2019-05-01T04:40:49.973Z,132.05
2019-05-01T04:43:21.424Z,118.87
2019-05-01T04:45:51.913Z,122.05
2019-05-01T04:48:22.399Z,124.97
2019-05-01T04:50:52.406Z,107.80
2019-05-01T04:53:21.937Z,123.65
2019-05-01T04:55:51.334Z,112.17
2019-05-01T04:58:20.906Z,115.67
2019-05-01T05:00:50.704Z,100.82
2019-05-01T05:03:22.014Z,107.30
2019-05-01T05:05:51.440Z,108.55
2019-05-01T05:08:20.864Z,98.20
2019-05-01T05:10:51.989Z,112.47
2019-05-01T05:13:26.398Z,112.57
2019-05-01T05:16:03.659Z,111.73
2019-05-01T05:18:34.038Z,119.37
2019-05-01T05:21:03.963Z,107.80
2019-05-01T05:23:33.973Z,112.17
2019-05-01T05:26:04.164Z,108.78
2019-05-01T05:28:34.246Z,98.60
2019-05-01T05:31:04.685Z,109.67
2019-05-01T05:33:36.030Z,106.17
2019-05-01T05:36:07.140Z,95.60
2019-05-01T05:38:45.317Z,110.27
2019-05-01T05:41:15.593Z,97.60
2019-05-01T05:43:45.015Z,89.03
2019-05-01T05:46:14.918Z,90.97
2019-05-01T05:48:44.334Z,100.47
2019-05-01T05:51:19.053Z,108.97
2019-05-01T05:53:55.837Z,107.53
2019-05-01T05:56:30.044Z,99.20
2019-05-01T05:59:04.117Z,91.30
2019-05-01T06:01:37.123Z,99.13
2019-05-01T06:04:25.672Z,88.27
2019-05-01T06:07:13.796Z,93.37
2019-05-01T06:09:55.200Z,110.40
2019-05-01T06:12:29.429Z,87.20
2019-05-01T06:15:06.102Z,84.63
2019-05-01T06:17:41.062Z,87.43
2019-05-01T06:20:12.112Z,85.37
2019-05-01T06:23:01.745Z,87.67
2019-05-01T06:25:35.946Z,77.50
2019-05-01T06:28:05.734Z,88.70
2019-05-01T06:30:35.727Z,88.60
2019-05-01T06:33:09.530Z,92.03
2019-05-01T06:35:41.567Z,77.17
2019-05-01T06:38:31.598Z,80.37
2019-05-01T06:41:06.504Z,78.23
2019-05-01T06:43:57.109Z,87.00
2019-05-01T06:50:27.116Z,80.17
2019-05-01T06:56:30.913Z,70.17
2019-05-01T06:59:11.018Z,90.80
2019-05-01T07:05:03.137Z,72.00
2019-05-01T07:16:17.178Z,68.73
2019-05-01T07:18:46.585Z,82.53
2019-05-01T07:21:15.921Z,75.13
2019-05-01T07:24:28.058Z,69.73
2019-05-01T07:27:01.723Z,72.70
2019-05-01T07:32:41.163Z,68.93
2019-05-01T07:35:09.143Z,72.37
2019-05-01T07:38:18.627Z,71.50
2019-05-01T07:40:48.213Z,69.30
2019-05-01T07:43:36.808Z,60.00
2019-05-01T07:49:01.888Z,76.00
2019-05-01T07:51:31.359Z,69.97
2019-05-01T07:54:21.502Z,69.30
2019-05-01T07:56:50.989Z,64.33
2019-05-01T07:59:22.859Z,65.87
2019-05-01T08:04:52.775Z,61.90
2019-05-01T08:07:22.116Z,70.13
2019-05-01T08:09:51.599Z,80.50
2019-05-01T08:12:23.919Z,81.43
2019-05-01T08:19:04.334Z,77.90
2019-05-01T08:22:01.761Z,71.47
2019-05-01T08:24:35.739Z,69.07
2019-05-01T08:30:48.067Z,64.00
2019-05-01T08:33:44.824Z,60.17
2019-05-01T08:36:42.606Z,72.77
2019-05-01T08:39:27.699Z,67.80
2019-05-01T08:41:57.134Z,70.07
2019-05-01T08:45:06.776Z,63.00
2019-05-01T08:50:40.828Z,70.83
2019-05-01T08:53:10.168Z,56.27
2019-05-01T08:55:51.704Z,53.07
2019-05-01T08:58:21.037Z,45.50
2019-05-01T09:01:02.286Z,44.90
2019-05-01T09:03:43.605Z,57.33
2019-05-01T09:06:12.949Z,50.23
2019-05-01T09:08:42.281Z,52.00
2019-05-01T09:11:11.550Z,44.87
2019-05-01T09:13:40.895Z,42.33
2019-05-01T09:16:10.228Z,52.13
2019-05-01T09:18:39.560Z,50.40
2019-05-01T09:21:08.906Z,60.97
2019-05-01T09:23:38.239Z,46.40
2019-05-01T09:26:26.697Z,42.80
2019-05-01T09:29:16.139Z,53.50
2019-05-01T09:31:52.077Z,46.07
2019-05-01T09:34:21.413Z,37.27
2019-05-01T09:36:50.820Z,46.80
2019-05-01T09:42:22.856Z,34.90
2019-05-01T09:44:51.923Z,37.00
2019-05-01T09:50:30.423Z,40.13
2019-05-01T09:53:19.970Z,38.50
2019-05-01T09:56:09.162Z,37.77
2019-05-01T09:58:38.482Z,42.10
2019-05-01T10:01:07.895Z,42.57
2019-05-01T10:03:37.229Z,39.20
2019-05-01T10:06:06.567Z,39.60
2019-05-01T10:08:39.906Z,43.30
2019-05-01T10:11:12.184Z,35.80
2019-05-01T10:13:41.604Z,37.30
2019-05-01T10:16:11.076Z,46.53
2019-05-01T10:18:52.154Z,38.00
2019-05-01T10:21:22.368Z,33.20
2019-05-01T10:24:01.960Z,33.53
2019-05-01T10:30:01.574Z,25.53
2019-05-01T10:35:51.901Z,41.30
2019-05-01T10:38:21.232Z,37.77
2019-05-01T10:40:50.568Z,39.47
2019-05-01T10:43:19.923Z,39.50
2019-05-01T10:45:49.256Z,37.00
2019-05-01T10:48:18.651Z,38.33
2019-05-01T10:50:48.036Z,36.27
2019-05-01T10:53:17.335Z,35.50
2019-05-01T10:55:46.673Z,35.90
2019-05-01T10:58:17.950Z,37.43
2019-05-01T11:01:46.046Z,35.20
2019-05-01T11:07:09.856Z,31.07
2019-05-01T11:09:39.224Z,37.03
2019-05-01T11:12:08.565Z,32.83
2019-05-01T11:14:37.895Z,30.53
2019-05-01T11:17:07.388Z,35.60
2019-05-01T11:19:36.726Z,35.37
2019-05-01T11:22:06.135Z,31.37
2019-05-01T11:24:47.544Z,27.27
2019-05-01T11:27:16.877Z,37.93
2019-05-01T11:29:46.219Z,34.93
2019-05-01T11:32:34.672Z,78.57
2019-05-01T11:38:56.985Z,28.70
2019-05-01T11:44:06.424Z,34.83
2019-05-01T11:46:35.755Z,37.23
2019-05-01T11:49:05.279Z,35.67
2019-05-01T11:51:34.633Z,28.10
2019-05-01T11:54:04.133Z,35.13
2019-05-01T11:56:33.473Z,31.87
2019-05-01T11:59:03.129Z,33.53
2019-05-01T12:01:32.509Z,31.33
2019-05-01T12:04:01.810Z,29.93
2019-05-01T12:06:31.154Z,36.23
2019-05-01T12:09:00.483Z,30.30
2019-05-01T12:14:10.067Z,33.83
2019-05-01T12:16:58.516Z,36.27
2019-05-01T12:19:46.978Z,53.67
2019-05-01T12:22:23.716Z,31.37
2019-05-01T12:24:53.065Z,25.47
2019-05-01T12:27:22.396Z,27.63
2019-05-01T12:29:51.736Z,39.37
2019-05-01T12:32:21.081Z,26.90
2019-05-01T12:34:50.419Z,28.10
2019-05-01T12:37:38.889Z,32.53
2019-05-01T12:43:12.287Z,33.50
2019-05-01T12:48:42.763Z,30.03
2019-05-01T12:51:12.208Z,36.20
2019-05-01T12:54:00.679Z,30.03
2019-05-01T12:59:10.309Z,32.30
2019-05-01T13:04:28.029Z,35.30
2019-05-01T13:07:18.153Z,28.53
2019-05-01T13:09:47.495Z,29.13
2019-05-01T13:12:16.831Z,38.43
2019-05-01T13:14:46.176Z,26.63
2019-05-01T13:17:15.525Z,32.87
2019-05-01T13:19:44.905Z,26.63
2019-05-01T13:22:14.211Z,27.30
2019-05-01T13:25:02.682Z,38.73
2019-05-01T13:30:52.691Z,34.87
2019-05-01T13:33:22.108Z,26.73
2019-05-01T13:35:51.490Z,24.63
2019-05-01T13:38:20.915Z,26.57
2019-05-01T13:40:50.494Z,22.43
2019-05-01T13:43:19.839Z,29.03
2019-05-01T13:45:49.168Z,25.27
2019-05-01T13:48:18.573Z,31.50
2019-05-01T13:50:47.913Z,27.93
2019-05-01T13:53:22.555Z,28.57
2019-05-01T13:55:51.909Z,31.13
2019-05-01T13:58:21.497Z,27.87
2019-05-01T14:00:50.835Z,30.40
2019-05-01T14:03:20.416Z,26.87
2019-05-01T14:05:49.758Z,23.60
2019-05-01T14:08:19.198Z,27.63
2019-05-01T14:10:48.519Z,25.50
2019-05-01T14:13:17.862Z,24.93
2019-05-01T14:15:47.202Z,25.63
2019-05-01T14:18:16.534Z,27.20
2019-05-01T14:28:45.182Z,33.23
2019-05-01T14:31:14.517Z,30.07
2019-05-01T14:33:43.878Z,35.27
2019-05-01T14:36:13.576Z,24.50
2019-05-01T14:38:42.910Z,24.40
2019-05-01T14:41:12.256Z,20.07
2019-05-01T14:43:41.619Z,23.70
2019-05-01T14:46:10.956Z,26.83
2019-05-01T14:48:40.298Z,22.40
2019-05-01T14:51:09.633Z,21.60
2019-05-01T14:53:39.084Z,29.70
2019-05-01T14:56:08.416Z,34.90
2019-05-01T14:58:37.779Z,23.17
2019-05-01T15:01:07.195Z,26.23
2019-05-01T15:03:36.523Z,21.77
2019-05-01T15:06:25.196Z,32.30
2019-05-01T15:08:54.532Z,22.00
2019-05-01T15:11:23.870Z,26.60
2019-05-01T15:14:12.327Z,19.43
2019-05-01T15:17:00.768Z,21.70
2019-05-01T15:22:25.706Z,24.27
2019-05-01T15:24:55.054Z,25.73
2019-05-01T15:27:24.397Z,23.53
2019-05-01T15:29:53.732Z,24.03
2019-05-01T15:32:23.072Z,19.73
2019-05-01T15:34:52.476Z,17.83
2019-05-01T15:37:21.822Z,19.50
2019-05-01T15:45:36.736Z,22.13
2019-05-01T15:48:06.086Z,25.67
2019-05-01T15:50:54.508Z,17.97
2019-05-01T15:53:23.866Z,22.77
2019-05-01T15:55:53.228Z,29.27
2019-05-01T15:58:22.562Z,27.73
2019-05-01T16:00:51.923Z,41.07
2019-05-01T16:03:21.262Z,16.20
2019-05-01T16:05:50.606Z,24.43
2019-05-01T16:08:19.959Z,16.23
2019-05-01T16:13:28.381Z,23.40
2019-05-01T16:15:57.719Z,21.23
2019-05-01T16:18:27.060Z,18.63
2019-05-01T16:20:56.397Z,16.57
2019-05-01T16:23:25.731Z,20.90
2019-05-01T16:25:55.084Z,19.17
2019-05-01T16:28:24.409Z,20.17
2019-05-01T16:30:53.757Z,16.10
2019-05-01T16:33:23.091Z,15.17
2019-05-01T16:35:52.660Z,22.23
2019-05-01T16:38:41.115Z,18.67
2019-05-01T16:44:19.560Z,19.10
2019-05-01T16:46:48.895Z,21.37
2019-05-01T16:49:18.242Z,19.67
2019-05-01T16:51:47.646Z,24.80
2019-05-01T16:54:16.975Z,25.73
2019-05-01T16:56:46.347Z,30.77
2019-05-01T16:59:15.659Z,18.93
2019-05-01T17:02:04.185Z,21.60
2019-05-01T17:04:52.633Z,19.00
2019-05-01T17:07:41.103Z,15.83
2019-05-01T17:13:44.805Z,20.43
2019-05-01T17:16:14.207Z,21.60
2019-05-01T17:18:43.559Z,23.83
2019-05-01T17:21:12.906Z,27.13
2019-05-01T17:23:42.240Z,24.17
2019-05-01T17:26:11.582Z,21.70
2019-05-01T17:28:40.912Z,19.60
2019-05-01T17:31:10.691Z,22.50
2019-05-01T17:33:40.089Z,24.47
2019-05-01T17:36:09.491Z,24.23
2019-05-01T17:38:48.982Z,22.97
2019-05-01T17:41:22.619Z,21.20
2019-05-01T17:44:14.850Z,20.03
2019-05-01T17:46:46.963Z,21.73
2019-05-01T17:49:20.703Z,24.70
2019-05-01T17:51:50.038Z,19.23
2019-05-01T17:54:19.370Z,31.57
2019-05-01T18:03:05.368Z,21.20
2019-05-01T18:05:56.220Z,18.60
2019-05-01T18:11:47.312Z,23.23
2019-05-01T18:14:41.611Z,29.53
2019-05-01T18:17:10.951Z,20.73
2019-05-01T18:19:40.294Z,26.83
2019-05-01T18:28:29.874Z,25.70
2019-05-01T18:33:44.856Z,26.30
2019-05-01T18:36:14.188Z,22.43
2019-05-01T18:41:43.139Z,28.47
2019-05-01T18:44:12.489Z,20.90
2019-05-01T18:46:41.822Z,21.17
2019-05-01T18:52:13.419Z,20.50
2019-05-01T18:54:42.753Z,23.67
2019-05-01T18:57:17.724Z,27.73
2019-05-01T18:59:59.405Z,27.83
2019-05-01T19:02:28.756Z,28.80
2019-05-01T19:05:17.433Z,31.60
2019-05-01T19:07:46.847Z,34.43
2019-05-01T19:10:16.191Z,35.13
2019-05-01T19:12:45.529Z,31.87
2019-05-01T19:15:14.876Z,36.80
2019-05-01T19:17:44.232Z,30.93
2019-05-01T19:20:13.660Z,32.37
2019-05-01T19:22:42.961Z,32.07
2019-05-01T19:25:23.971Z,27.77
2019-05-01T19:28:07.149Z,31.33
2019-05-01T19:31:16.408Z,29.23
2019-05-01T19:37:09.090Z,33.80
2019-05-01T19:39:43.797Z,30.83
2019-05-01T19:45:14.956Z,36.20
2019-05-01T19:48:03.656Z,26.87
2019-05-01T19:50:32.985Z,29.30
2019-05-01T19:53:02.445Z,29.93
2019-05-01T19:55:44.865Z,32.27
2019-05-01T19:58:26.930Z,37.40
2019-05-01T20:01:38.446Z,50.80
2019-05-01T20:04:16.814Z,27.63
2019-05-01T20:06:58.354Z,35.33
2019-05-01T20:09:27.683Z,36.80
2019-05-01T20:12:16.368Z,32.53
2019-05-01T20:14:45.799Z,47.70
2019-05-01T20:17:34.480Z,31.00
2019-05-01T20:23:35.799Z,30.30
2019-05-01T20:26:05.137Z,45.77
2019-05-01T20:28:34.484Z,41.30
2019-05-01T20:31:25.783Z,46.20
2019-05-01T20:34:00.237Z,41.27
2019-05-01T20:36:29.572Z,38.63
2019-05-01T20:39:11.536Z,32.43
2019-05-01T20:41:40.886Z,33.73
2019-05-01T20:44:10.216Z,53.70
2019-05-01T20:46:39.565Z,44.87
2019-05-01T20:49:08.909Z,40.77
2019-05-01T20:51:38.238Z,42.40
2019-05-01T20:54:07.751Z,45.70
2019-05-01T20:59:35.182Z,43.23
2019-05-01T21:02:09.640Z,30.33
2019-05-01T21:04:58.099Z,38.23
2019-05-01T21:11:06.024Z,34.17
2019-05-01T21:13:38.972Z,37.50
2019-05-01T21:16:08.320Z,35.90
2019-05-01T21:18:37.654Z,37.93
2019-05-01T21:21:07.344Z,34.63
2019-05-01T21:23:36.699Z,38.37
2019-05-01T21:26:06.038Z,40.53
2019-05-01T21:28:35.375Z,37.43
2019-05-01T21:31:04.721Z,54.40
2019-05-01T21:33:34.282Z,58.23
2019-05-01T21:36:13.940Z,62.27
2019-05-01T21:38:43.270Z,81.43
2019-05-01T21:41:12.604Z,82.43
2019-05-01T21:43:42.488Z,107.60
2019-05-01T21:46:33.937Z,57.73
2019-05-01T21:49:08.771Z,62.50
2019-05-01T21:51:42.380Z,38.03
2019-05-01T21:54:28.237Z,36.57
2019-05-01T21:56:57.808Z,30.50
2019-05-01T21:59:27.138Z,30.70
2019-05-01T22:01:56.579Z,28.73
2019-05-01T22:04:28.002Z,30.57
2019-05-01T22:07:02.568Z,45.67
2019-05-01T22:12:14.279Z,40.00
2019-05-01T22:23:59.131Z,37.80
2019-05-01T22:32:34.121Z,37.50
2019-05-01T22:35:14.749Z,56.67
2019-05-01T22:37:44.095Z,45.77
2019-05-01T22:43:14.990Z,44.53
2019-05-01T22:45:44.390Z,38.03
2019-05-01T22:48:13.768Z,37.20
2019-05-01T22:50:43.108Z,42.33
2019-05-01T22:53:13.331Z,35.40
2019-05-01T22:55:49.116Z,40.67
2019-05-01T22:58:18.425Z,41.90
2019-05-01T23:01:06.952Z,41.60
2019-05-01T23:03:55.401Z,38.33
2019-05-01T23:06:24.883Z,35.50
2019-05-01T23:08:54.210Z,37.90
2019-05-01T23:14:18.823Z,54.90
2019-05-01T23:22:43.420Z,68.73
2019-05-01T23:25:27.323Z,46.73
2019-05-01T23:27:50.073Z,121.67
2019-05-01T23:34:08.488Z,98.50
2019-05-01T23:36:37.819Z,64.93
2019-05-01T23:39:07.156Z,41.00
2019-05-01T23:41:45.672Z,50.77
2019-05-01T23:44:26.699Z,44.60
2019-05-01T23:46:56.039Z,41.60
2019-05-01T23:49:25.385Z,38.13
2019-05-01T23:51:58.641Z,53.10
2019-05-01T23:54:44.852Z,34.37
2019-05-01T23:57:14.894Z,39.90
